パゴパゴ の空港の天気 - METARとTAF

パゴパゴ国際空港 ( NSTU / PPG ) - アメリカ領サモア パゴパゴ
飛行場実況気象(Metar)
観測時間01/22 19:51 SST (01/23 06:51 UTC)
風向・風速不定 2m/s
視程10km以上
天気現象
少しの雲 雲底高度 700m
全天の4割程度の雲 雲底高度 1220m
全天の8割程度の雲 雲底高度 3050m
気温26.1℃
湿度80%
気圧1006.9hPa
METARNSTU 230651Z VRB03KT 10SM FEW023 SCT040 BKN100 26/22 A2973 RMK SLP069 T02610224
過去の天気等 Google飛行場航空写真 Wunderground天気予報

過去48時間のMETAR

飛行場予報(TAF)
発表時間: 1/22 18:36 SST (1/23 05:36 UTC)
予報対象時間: 22日19時 SST ~ 23日19時 SST
風向・風速北北東 6m/s
視程10km以上
天気現象周辺でしゅう雨
全天の4割程度の雲 雲底高度 460m
全天の8割程度の雲 雲底高度 1,070m
全天の8割程度の雲 雲底高度 3,050m
23日9時 SST から
風向・風速東北東 4m/s
視程10km以上
少しの雲 雲底高度 460m
全天の4割程度の雲 雲底高度 1,220m
全天の4割程度の雲 雲底高度 3,660m
NSTU 230536Z 2306/2406 02011KT P6SM VCSH SCT015 BKN035 BKN100
FM232000 06007KT P6SM FEW015 SCT040 SCT120